Time;durP1;ratioP1;P1;durP2;ratioP2;P2;SDS_P1;SDS_P2;PMS_P1;PMS_P2;Temp;Humidity;BMP_temperature;BMP_pressure;BME280_temperature;BME280_humidity;BME280_pressure;Samples;Min_cycle;Max_cycle;Signal;HPM_P1;HPM_P2
2022/09/02 00:01:44;;;;;;;0.85;0.60;;;;;;;10.26;96.70;102200.78;5012969;28;20180;-52
2022/09/02 00:04:20;;;;;;;1.15;0.60;;;;;;;10.26;97.25;102200.78;5014162;28;20196;-49
2022/09/02 00:06:47;;;;;;;1.55;0.82;;;;;;;10.23;97.57;102199.06;5017254;28;20581;-49
2022/09/02 00:09:19;;;;;;;0.75;0.75;;;;;;;10.02;97.90;102200.22;5018693;28;20191;-50
2022/09/02 00:11:47;;;;;;;1.30;0.98;;;;;;;10.04;98.45;102185.03;5009970;28;20624;-49
2022/09/02 00:14:22;;;;;;;1.35;0.75;;;;;;;9.92;98.74;102195.03;5015343;28;20191;-50
2022/09/02 00:16:51;;;;;;;0.73;0.73;;;;;;;9.96;99.17;102194.06;5018973;28;20195;-49
2022/09/02 00:19:23;;;;;;;0.80;0.80;;;;;;;9.96;99.24;102183.38;5024124;28;20560;-51
2022/09/02 00:21:49;;;;;;;1.88;0.82;;;;;;;9.87;99.58;102184.38;5027851;28;20647;-50
2022/09/02 00:24:16;;;;;;;0.98;0.85;;;;;;;9.92;99.68;102179.84;5025429;28;20271;-48
2022/09/02 00:26:42;;;;;;;0.80;0.80;;;;;;;9.88;99.81;102183.47;5013353;28;20208;-51
2022/09/02 00:29:09;;;;;;;1.45;0.60;;;;;;;9.81;99.91;102179.09;5014664;28;20231;-48
2022/09/02 00:31:35;;;;;;;1.08;0.80;;;;;;;9.82;99.90;102184.44;5016387;28;20191;-49
2022/09/02 00:34:02;;;;;;;2.20;0.80;;;;;;;9.80;99.95;102178.22;5009877;28;20252;-50
2022/09/02 00:36:28;;;;;;;1.13;0.90;;;;;;;9.77;100.00;102180.91;5013801;28;20695;-49
2022/09/02 00:38:53;;;;;;;0.90;0.70;;;;;;;9.70;100.00;102180.13;5017529;28;20223;-50
2022/09/02 00:41:23;;;;;;;0.93;0.63;;;;;;;9.73;100.00;102180.97;5021412;28;20533;-49
2022/09/02 00:43:51;;;;;;;0.88;0.80;;;;;;;9.73;100.00;102170.28;5023006;28;20560;-50
2022/09/02 00:46:20;;;;;;;0.85;0.85;;;;;;;9.73;100.00;102180.97;5018784;28;20220;-49
2022/09/02 00:49:07;;;;;;;1.10;0.70;;;;;;;9.68;100.00;102171.22;5014095;28;20172;-49
2022/09/02 00:51:44;;;;;;;1.73;0.80;;;;;;;9.65;100.00;102176.63;5022940;28;20199;-50
2022/09/02 00:54:12;;;;;;;0.90;0.90;;;;;;;9.64;100.00;102171.28;5018039;28;20187;-49
2022/09/02 00:56:40;;;;;;;1.00;0.65;;;;;;;9.59;99.96;102183.84;5020981;28;20211;-50
2022/09/02 00:59:07;;;;;;;0.73;0.73;;;;;;;9.59;100.00;102166.00;5015625;28;20212;-51
2022/09/02 01:01:33;;;;;;;2.38;1.20;;;;;;;9.44;100.00;102177.75;5020005;28;20199;-49
2022/09/02 01:03:58;;;;;;;1.00;0.75;;;;;;;9.40;100.00;102173.38;5020698;28;20184;-50
2022/09/02 01:06:27;;;;;;;1.00;1.00;;;;;;;9.43;100.00;102173.34;5027162;28;20196;-51
2022/09/02 01:09:09;;;;;;;0.90;0.90;;;;;;;9.46;100.00;102180.44;5041562;28;20199;-51
2022/09/02 01:11:40;;;;;;;0.63;0.63;;;;;;;9.42;100.00;102168.00;5017597;28;20181;-51
2022/09/02 01:14:06;;;;;;;1.15;0.90;;;;;;;9.48;100.00;102175.94;5014316;28;20282;-51
2022/09/02 01:16:40;;;;;;;6.40;0.70;;;;;;;9.40;100.00;102165.34;5024282;28;20279;-49
2022/09/02 01:19:13;;;;;;;1.15;0.80;;;;;;;9.33;100.00;102163.63;5015063;28;20219;-51
2022/09/02 01:21:45;;;;;;;0.70;0.70;;;;;;;9.39;100.00;102157.34;5013870;28;20286;-49
2022/09/02 01:24:11;;;;;;;1.45;0.82;;;;;;;9.26;100.00;102167.28;5032567;28;20569;-50
2022/09/02 01:26:36;;;;;;;0.80;0.80;;;;;;;9.27;100.00;102158.34;5021894;28;20242;-48
2022/09/02 01:29:03;;;;;;;1.10;0.60;;;;;;;9.30;100.00;102158.34;5029108;28;20584;-49
2022/09/02 01:31:28;;;;;;;0.75;0.70;;;;;;;9.28;100.00;102160.13;5028064;28;20195;-51
2022/09/02 01:33:54;;;;;;;0.80;0.80;;;;;;;9.38;100.00;102161.81;5015813;28;20560;-48
2022/09/02 01:36:20;;;;;;;0.95;0.90;;;;;;;9.28;100.00;102161.00;5028540;28;20258;-48
2022/09/02 01:38:45;;;;;;;1.35;0.90;;;;;;;9.20;100.00;102170.91;5020096;28;20176;-50
2022/09/02 01:41:11;;;;;;;1.55;0.70;;;;;;;9.24;100.00;102163.75;5020274;28;20231;-49
2022/09/02 01:43:37;;;;;;;0.60;0.60;;;;;;;9.40;100.00;102169.78;5014093;28;20251;-49
2022/09/02 01:46:03;;;;;;;1.80;0.70;;;;;;;9.44;100.00;102166.19;5020500;28;20238;-52
2022/09/02 01:48:30;;;;;;;0.75;0.73;;;;;;;9.33;99.97;102160.97;5014396;28;20211;-53
2022/09/02 01:51:01;;;;;;;0.90;0.75;;;;;;;9.30;99.88;102152.97;5022688;28;20188;-52
2022/09/02 01:53:28;;;;;;;0.60;0.60;;;;;;;9.28;99.78;102154.78;5026768;28;20690;-50
2022/09/02 01:55:54;;;;;;;1.65;0.70;;;;;;;9.36;100.00;102158.28;5021036;28;20232;-50
2022/09/02 01:58:20;;;;;;;1.10;0.80;;;;;;;9.24;99.46;102153.03;5014796;28;20567;-48
2022/09/02 02:00:46;;;;;;;0.68;0.65;;;;;;;9.21;99.77;102163.78;5010964;28;20692;-48
2022/09/02 02:03:13;;;;;;;0.90;0.70;;;;;;;9.07;99.61;102156.81;5012826;28;20200;-51
2022/09/02 02:05:38;;;;;;;0.70;0.70;;;;;;;9.13;100.00;102154.97;5011989;28;20201;-48
2022/09/02 02:08:05;;;;;;;1.23;0.77;;;;;;;9.24;100.00;102155.72;5010887;28;20169;-48
2022/09/02 02:10:31;;;;;;;1.10;1.00;;;;;;;9.17;99.89;102144.22;5012263;28;20223;-49
2022/09/02 02:13:00;;;;;;;0.90;0.70;;;;;;;9.25;99.64;102155.72;5011834;28;20164;-49
2022/09/02 02:15:26;;;;;;;1.52;0.80;;;;;;;9.00;99.67;102148.84;5012482;28;20602;-50
2022/09/02 02:17:51;;;;;;;0.90;0.90;;;;;;;8.97;99.60;102148.91;5027058;28;20177;-48
2022/09/02 02:20:19;;;;;;;2.03;0.90;;;;;;;8.90;100.00;102156.09;5010798;28;20201;-50
2022/09/02 02:22:46;;;;;;;0.60;0.60;;;;;;;9.03;100.00;102154.16;5012053;28;20636;-49
2022/09/02 02:25:13;;;;;;;1.10;0.80;;;;;;;9.02;100.00;102142.59;5011891;28;20189;-49
2022/09/02 02:27:40;;;;;;;1.35;0.85;;;;;;;9.01;100.00;102154.19;5010583;28;20656;-49
2022/09/02 02:30:08;;;;;;;1.58;0.82;;;;;;;8.81;99.71;102154.41;5010646;28;20196;-49
2022/09/02 02:32:45;;;;;;;1.45;0.75;;;;;;;8.93;100.00;102153.38;5005572;28;20560;-54
2022/09/02 02:35:16;;;;;;;1.13;0.75;;;;;;;8.88;99.98;102152.56;5010629;28;20200;-49
2022/09/02 02:37:43;;;;;;;2.47;0.80;;;;;;;8.82;100.00;102152.59;5010247;28;20315;-51
2022/09/02 02:40:10;;;;;;;1.23;0.93;;;;;;;8.69;100.00;102143.81;5011942;28;20546;-49
2022/09/02 02:42:36;;;;;;;0.80;0.80;;;;;;;8.55;99.97;102151.06;5010219;28;20180;-50
2022/09/02 02:45:08;;;;;;;2.33;0.85;;;;;;;8.69;100.00;102141.16;5010092;28;20184;-49
2022/09/02 02:47:38;;;;;;;0.82;0.77;;;;;;;8.64;100.00;102157.22;5010287;28;20180;-47
2022/09/02 02:50:09;;;;;;;0.70;0.68;;;;;;;8.75;100.00;102135.75;5010013;28;20192;-52
2022/09/02 02:52:37;;;;;;;0.70;0.70;;;;;;;8.83;100.00;102149.03;5010216;28;20173;-48
2022/09/02 02:55:03;;;;;;;1.50;0.73;;;;;;;8.76;100.00;102150.88;5011285;28;20243;-50
2022/09/02 02:57:28;;;;;;;1.05;0.90;;;;;;;8.60;99.79;102155.47;5010177;28;20205;-49
2022/09/02 02:59:54;;;;;;;1.75;1.10;;;;;;;8.52;100.00;102146.63;5011280;28;20287;-55
2022/09/02 03:02:20;;;;;;;1.30;0.90;;;;;;;8.44;100.00;102149.38;5009978;28;20185;-49
2022/09/02 03:04:46;;;;;;;0.90;0.90;;;;;;;8.45;100.00;102143.13;5011242;28;20255;-49
2022/09/02 03:07:11;;;;;;;1.25;1.00;;;;;;;8.52;100.00;102149.31;5009848;28;20173;-48
2022/09/02 03:09:37;;;;;;;1.30;0.77;;;;;;;8.39;100.00;102143.13;5026675;28;20170;-49
2022/09/02 03:12:04;;;;;;;0.75;0.75;;;;;;;8.37;100.00;102152.94;5030887;28;20161;-50
2022/09/02 03:14:31;;;;;;;1.17;0.98;;;;;;;8.37;100.00;102146.72;5029421;28;20164;-50
2022/09/02 03:16:56;;;;;;;1.42;1.00;;;;;;;8.27;100.00;102156.59;5029197;28;20208;-49
2022/09/02 03:19:22;;;;;;;4.20;1.13;;;;;;;8.30;100.00;102153.91;5020658;28;20226;-49
2022/09/02 03:21:48;;;;;;;1.15;0.65;;;;;;;8.37;100.00;102154.72;5029495;28;20666;-50
2022/09/02 03:24:13;;;;;;;0.82;0.80;;;;;;;8.34;100.00;102146.75;5031012;28;20168;-51
2022/09/02 03:26:41;;;;;;;2.05;1.05;;;;;;;8.27;100.00;102148.59;5030639;28;20226;-49
2022/09/02 03:29:08;;;;;;;1.65;0.80;;;;;;;8.20;100.00;102138.88;5029403;28;20200;-48
2022/09/02 03:31:34;;;;;;;0.88;0.88;;;;;;;8.23;100.00;102134.38;5030873;28;20271;-47
2022/09/02 03:34:01;;;;;;;2.15;0.77;;;;;;;8.18;100.00;102133.53;5029201;28;20259;-46
2022/09/02 03:36:38;;;;;;;1.00;0.90;;;;;;;8.25;100.00;102137.91;5029329;28;20203;-48
2022/09/02 03:39:07;;;;;;;1.30;1.00;;;;;;;8.19;100.00;102132.63;5029057;28;20168;-49
2022/09/02 03:41:33;;;;;;;1.13;0.70;;;;;;;8.20;100.00;102129.06;5027423;28;20295;-49
2022/09/02 03:44:00;;;;;;;0.80;0.80;;;;;;;8.31;100.00;102128.97;5030530;28;20168;-48
2022/09/02 03:46:28;;;;;;;1.27;0.80;;;;;;;8.29;100.00;102140.53;5029125;28;20215;-49
2022/09/02 03:48:54;;;;;;;0.93;0.90;;;;;;;8.17;100.00;102126.41;5029156;28;20560;-52
2022/09/02 03:51:24;;;;;;;1.02;0.73;;;;;;;8.26;100.00;102138.78;5029172;28;20176;-48
2022/09/02 03:53:50;;;;;;;1.58;1.02;;;;;;;8.19;100.00;102129.94;5029130;28;20199;-48
2022/09/02 03:56:16;;;;;;;0.88;0.85;;;;;;;8.19;100.00;102127.28;5028900;28;20230;-48
2022/09/02 03:58:43;;;;;;;1.05;0.95;;;;;;;8.12;100.00;102128.22;5029263;28;20224;-48
2022/09/02 04:01:22;;;;;;;1.15;0.90;;;;;;;8.08;100.00;102128.25;5029139;28;20191;-50
2022/09/02 04:03:50;;;;;;;0.77;0.77;;;;;;;8.00;100.00;102121.19;5028980;28;20187;-50
2022/09/02 04:06:18;;;;;;;0.88;0.88;;;;;;;8.01;100.00;102122.09;5026497;28;20276;-52
2022/09/02 04:08:46;;;;;;;1.20;0.80;;;;;;;8.00;100.00;102121.19;5004449;28;20192;-53
2022/09/02 04:11:16;;;;;;;1.00;1.00;;;;;;;7.97;100.00;102128.34;5021898;28;20188;-52
2022/09/02 04:13:45;;;;;;;1.48;1.10;;;;;;;7.96;100.00;102132.78;5015286;28;20585;-54
2022/09/02 04:16:27;;;;;;;2.38;1.00;;;;;;;7.93;100.00;102119.44;5025777;28;20234;-52
2022/09/02 04:18:58;;;;;;;1.05;1.02;;;;;;;7.87;100.00;102130.19;5012512;28;20566;-52
2022/09/02 04:21:25;;;;;;;0.88;0.88;;;;;;;7.97;100.00;102123.00;5028427;28;20684;-52
2022/09/02 04:23:51;;;;;;;0.98;0.98;;;;;;;7.94;100.00;102131.03;5025782;28;20179;-53
2022/09/02 04:26:20;;;;;;;1.15;1.02;;;;;;;7.84;100.00;102124.84;5029157;28;20200;-54
2022/09/02 04:28:50;;;;;;;3.55;1.00;;;;;;;7.94;100.00;102120.34;5029288;28;20226;-53
2022/09/02 04:31:19;;;;;;;1.17;1.00;;;;;;;7.82;100.00;102130.19;5030337;28;20172;-52
2022/09/02 04:33:46;;;;;;;2.80;1.05;;;;;;;7.80;100.00;102125.75;5030653;28;20176;-51
2022/09/02 04:36:16;;;;;;;0.90;0.90;;;;;;;7.71;100.00;102123.16;5030632;28;20184;-51
2022/09/02 04:38:43;;;;;;;1.30;1.20;;;;;;;7.76;100.00;102122.25;5021839;28;20181;-53
2022/09/02 04:41:15;;;;;;;2.83;1.30;;;;;;;7.78;100.00;102125.78;5030717;28;20741;-52
2022/09/02 04:43:41;;;;;;;1.38;0.90;;;;;;;7.79;100.00;102130.22;5028424;28;20191;-52
2022/09/02 04:46:10;;;;;;;1.38;0.98;;;;;;;7.73;100.00;102127.56;5038064;28;20246;-52
2022/09/02 04:48:37;;;;;;;1.70;1.30;;;;;;;7.77;100.00;102118.66;5026508;28;20267;-53
2022/09/02 04:51:09;;;;;;;0.90;0.90;;;;;;;7.79;100.00;102124.88;5028425;28;20560;-53
2022/09/02 04:53:36;;;;;;;2.38;1.17;;;;;;;7.72;100.00;102123.16;5027241;28;20230;-52
2022/09/02 04:56:07;;;;;;;1.35;1.02;;;;;;;7.76;100.00;102124.91;5014586;28;20216;-52
2022/09/02 04:58:35;;;;;;;1.17;1.10;;;;;;;7.81;100.00;102131.09;5016268;28;20565;-54
2022/09/02 05:01:07;;;;;;;1.40;1.30;;;;;;;7.96;100.00;102126.53;5021998;28;20304;-51
2022/09/02 05:03:34;;;;;;;2.13;1.35;;;;;;;8.03;100.00;102136.31;5026369;28;20247;-53
2022/09/02 05:06:01;;;;;;;1.40;1.30;;;;;;;8.12;100.00;102125.56;5020469;28;20211;-53
2022/09/02 05:08:28;;;;;;;2.28;1.30;;;;;;;8.16;100.00;102138.00;5024713;28;20555;-52
2022/09/02 05:10:54;;;;;;;1.20;1.10;;;;;;;8.47;100.00;102139.56;5029792;28;20183;-54
2022/09/02 05:13:22;;;;;;;1.20;1.10;;;;;;;8.91;100.00;102138.28;5025078;28;20191;-52
2022/09/02 05:15:48;;;;;;;2.05;1.10;;;;;;;9.40;100.00;102133.25;5025958;28;20582;-52
2022/09/02 05:18:15;;;;;;;1.55;1.45;;;;;;;9.92;100.00;102141.47;5029332;28;20184;-51
2022/09/02 05:20:42;;;;;;;1.33;1.08;;;;;;;10.45;100.00;102131.75;5017314;28;20594;-50
2022/09/02 05:23:11;;;;;;;1.40;1.20;;;;;;;10.68;98.38;102124.19;5024232;28;20561;-51
2022/09/02 05:25:39;;;;;;;2.10;1.20;;;;;;;10.95;96.08;102129.97;5022589;28;20379;-52
2022/09/02 05:28:09;;;;;;;3.35;1.08;;;;;;;11.20;93.84;102134.88;5021184;28;20188;-51
2022/09/02 05:30:38;;;;;;;1.45;1.08;;;;;;;11.38;92.42;102130.91;5017247;28;20219;-51
2022/09/02 05:33:06;;;;;;;1.40;1.20;;;;;;;11.70;90.81;102127.56;5031658;28;20195;-51
2022/09/02 05:35:32;;;;;;;2.60;1.20;;;;;;;12.14;90.22;102125.69;5029299;28;20222;-48
2022/09/02 05:37:58;;;;;;;0.95;0.80;;;;;;;12.43;88.92;102134.81;5025159;28;20188;-48
2022/09/02 05:40:25;;;;;;;1.50;1.02;;;;;;;12.75;88.10;102128.63;5028419;28;20710;-49
2022/09/02 05:42:51;;;;;;;1.00;1.00;;;;;;;12.88;87.33;102124.69;5012771;28;20196;-51
2022/09/02 05:45:17;;;;;;;1.50;1.20;;;;;;;13.09;87.37;102133.94;5020587;28;20212;-50
2022/09/02 05:47:43;;;;;;;1.73;1.00;;;;;;;13.31;86.96;102123.50;5009607;28;20522;-48
2022/09/02 05:50:09;;;;;;;1.70;1.10;;;;;;;13.53;86.54;102131.81;5031965;28;20191;-47
2022/09/02 05:52:35;;;;;;;0.98;0.98;;;;;;;13.79;85.90;102132.84;5030070;28;20184;-49
2022/09/02 05:55:02;;;;;;;1.35;1.10;;;;;;;14.09;85.06;102124.75;5034559;28;20195;-48
2022/09/02 05:57:29;;;;;;;1.95;1.17;;;;;;;14.22;83.72;102126.97;5028748;28;20194;-48
2022/09/02 05:59:58;;;;;;;2.58;1.08;;;;;;;14.45;83.40;102113.66;5028622;28;20203;-47
2022/09/02 06:02:42;;;;;;;1.92;1.02;;;;;;;14.89;82.24;102111.25;5018618;28;20363;-48
2022/09/02 06:05:16;;;;;;;1.05;0.95;;;;;;;15.12;80.85;102116.72;5033910;28;20729;-49
2022/09/02 06:07:46;;;;;;;3.53;1.20;;;;;;;15.31;79.79;102108.84;5016875;28;20217;-48
2022/09/02 06:10:12;;;;;;;3.55;1.15;;;;;;;15.38;78.66;102114.88;5022976;28;20255;-46
2022/09/02 06:12:38;;;;;;;1.88;1.17;;;;;;;15.28;78.65;102106.22;5022405;28;20189;-48
2022/09/02 06:15:05;;;;;;;1.27;0.80;;;;;;;15.76;77.93;102116.13;5026758;28;20215;-47
2022/09/02 06:17:30;;;;;;;1.15;0.90;;;;;;;15.85;77.26;102110.38;5028527;28;20191;-46
2022/09/02 06:19:56;;;;;;;3.60;1.23;;;;;;;16.01;77.36;102109.75;5035699;28;20655;-47
2022/09/02 06:22:24;;;;;;;1.08;1.08;;;;;;;16.24;76.72;102112.38;5026878;28;20192;-47
2022/09/02 06:24:51;;;;;;;1.00;1.00;;;;;;;16.09;77.01;102123.81;5017567;28;20188;-48
2022/09/02 06:27:20;;;;;;;4.10;1.30;;;;;;;16.30;76.22;102111.25;5026749;28;20188;-48
2022/09/02 06:29:49;;;;;;;1.13;0.90;;;;;;;16.60;76.05;102106.38;5034780;28;20283;-46
2022/09/02 06:32:19;;;;;;;1.23;1.08;;;;;;;16.89;75.82;102106.94;5024817;28;20687;-47
2022/09/02 06:34:44;;;;;;;1.20;0.90;;;;;;;17.02;75.84;102107.28;5012769;28;20589;-48
2022/09/02 06:37:10;;;;;;;1.42;0.90;;;;;;;17.37;75.31;102116.50;5026614;28;20330;-48
2022/09/02 06:39:42;;;;;;;1.52;0.85;;;;;;;17.72;74.31;102108.56;5027322;28;20662;-46
2022/09/02 06:42:08;;;;;;;2.22;0.77;;;;;;;17.83;74.00;102108.06;5023918;28;20238;-46
2022/09/02 06:44:43;;;;;;;1.00;0.80;;;;;;;18.15;72.92;102111.03;5027448;28;20187;-49
2022/09/02 06:47:09;;;;;;;1.30;0.85;;;;;;;18.02;71.73;102108.94;5021721;28;20208;-48
2022/09/02 06:49:34;;;;;;;4.28;0.93;;;;;;;17.95;71.79;102112.00;5022897;28;20294;-48
2022/09/02 06:52:00;;;;;;;0.85;0.80;;;;;;;18.20;70.97;102103.56;5009269;28;20605;-48
2022/09/02 06:54:31;;;;;;;2.10;0.60;;;;;;;18.21;70.88;102111.59;5022204;28;20212;-48
2022/09/02 06:57:08;;;;;;;3.67;0.73;;;;;;;18.27;70.40;102096.84;5026412;28;20318;-48
2022/09/02 06:59:36;;;;;;;1.00;0.60;;;;;;;18.24;70.20;102108.75;5022329;28;20722;-48
2022/09/02 07:02:02;;;;;;;3.38;0.70;;;;;;;18.16;69.40;102108.25;5025933;28;20239;-48
2022/09/02 07:07:16;;;;;;;1.10;0.68;;;;;;;18.69;68.94;102101.94;4994298;28;20223;-48
2022/09/02 07:09:51;;;;;;;0.80;0.80;;;;;;;18.96;67.79;102095.13;5022732;28;20659;-48
2022/09/02 07:12:18;;;;;;;0.50;0.50;;;;;;;19.02;68.22;102090.28;5026740;28;20195;-48
2022/09/02 07:14:54;;;;;;;1.00;0.70;;;;;;;18.76;66.88;102097.06;5022457;28;20406;-47
2022/09/02 07:17:26;;;;;;;1.95;0.52;;;;;;;18.96;67.03;102095.13;5025390;28;20184;-47
2022/09/02 07:19:59;;;;;;;4.55;0.77;;;;;;;18.90;65.94;102097.22;5026596;28;20567;-48
2022/09/02 07:22:26;;;;;;;1.05;0.60;;;;;;;18.59;64.82;102095.22;5025141;28;20596;-49
2022/09/02 07:24:52;;;;;;;2.53;0.50;;;;;;;18.49;64.46;102096.63;5027603;28;20187;-48
2022/09/02 07:27:19;;;;;;;0.63;0.60;;;;;;;19.07;65.63;102090.91;5011228;28;20565;-50
2022/09/02 07:29:47;;;;;;;1.27;0.60;;;;;;;19.44;63.03;102091.63;5020870;28;20214;-49
2022/09/02 07:32:15;;;;;;;1.45;0.50;;;;;;;19.05;61.33;102103.69;5016136;28;20539;-48
2022/09/02 07:34:41;;;;;;;0.98;0.68;;;;;;;19.33;60.41;102091.34;5026281;28;20651;-47
2022/09/02 07:37:08;;;;;;;0.70;0.60;;;;;;;19.33;59.64;102083.19;5024641;28;20223;-47
2022/09/02 07:39:34;;;;;;;0.55;0.55;;;;;;;19.41;59.37;102085.47;5017677;28;20191;-49
2022/09/02 07:42:00;;;;;;;0.63;0.60;;;;;;;19.35;58.23;102086.69;5016796;28;20264;-49
2022/09/02 07:44:27;;;;;;;0.43;0.43;;;;;;;19.52;58.14;102085.72;5025250;28;20187;-50
2022/09/02 07:46:55;;;;;;;1.58;0.60;;;;;;;19.82;57.26;102080.44;5006501;28;20293;-49
2022/09/02 07:49:22;;;;;;;0.50;0.43;;;;;;;19.64;56.11;102087.78;5006844;28;20283;-49
2022/09/02 07:51:49;;;;;;;0.40;0.40;;;;;;;19.96;55.96;102082.34;5021446;28;20271;-52
2022/09/02 07:54:19;;;;;;;1.55;0.60;;;;;;;20.13;54.33;102082.25;5025613;28;20218;-50
2022/09/02 07:56:45;;;;;;;1.15;0.60;;;;;;;20.17;54.03;102085.69;5020521;28;20266;-51
2022/09/02 07:59:11;;;;;;;9.07;1.20;;;;;;;19.68;53.95;102083.06;5028341;28;20179;-47
2022/09/02 08:01:42;;;;;;;1.10;0.80;;;;;;;19.86;52.15;102082.03;5024635;28;20243;-49
2022/09/02 08:04:08;;;;;;;2.65;0.60;;;;;;;20.01;52.17;102082.13;5023343;28;20561;-49
2022/09/02 08:06:36;;;;;;;3.25;0.80;;;;;;;19.73;52.69;102091.84;5024748;28;20238;-53
2022/09/02 08:09:10;;;;;;;0.47;0.43;;;;;;;20.11;52.52;102083.31;5026613;28;20184;-51
2022/09/02 08:11:40;;;;;;;0.60;0.60;;;;;;;20.21;51.33;102080.94;5014173;28;20547;-50
2022/09/02 08:14:11;;;;;;;0.47;0.40;;;;;;;20.51;51.83;102072.75;5015637;28;20189;-50
2022/09/02 08:16:38;;;;;;;0.40;0.30;;;;;;;20.63;51.37;102073.91;5001035;28;20643;-51
2022/09/02 08:19:04;;;;;;;0.43;0.43;;;;;;;20.76;51.02;102073.06;5020107;28;20603;-51
2022/09/02 08:21:30;;;;;;;0.90;0.50;;;;;;;20.35;49.90;102067.38;5023733;28;20227;-49
2022/09/02 08:23:57;;;;;;;2.30;0.68;;;;;;;20.29;50.59;102057.75;5016671;28;20180;-49
2022/09/02 08:26:24;;;;;;;1.00;0.60;;;;;;;20.13;49.33;102068.63;5019453;28;20207;-52
2022/09/02 08:28:49;;;;;;;0.50;0.50;;;;;;;20.18;49.71;102065.66;5024622;28;20203;-52
2022/09/02 08:31:15;;;;;;;0.43;0.43;;;;;;;20.51;49.34;102061.88;5021174;28;20176;-51
2022/09/02 08:33:41;;;;;;;0.60;0.40;;;;;;;20.70;49.98;102075.28;5025642;28;20189;-52
2022/09/02 08:36:10;;;;;;;1.92;0.60;;;;;;;21.14;49.10;102066.19;5024809;28;20219;-47
2022/09/02 08:38:36;;;;;;;1.58;0.40;;;;;;;20.61;49.21;102067.69;5021001;28;20188;-44
2022/09/02 08:41:10;;;;;;;0.50;0.40;;;;;;;19.79;49.50;102082.44;5018737;28;20208;-45
2022/09/02 08:43:40;;;;;;;0.80;0.80;;;;;;;20.09;50.09;102071.63;5023211;28;20183;-46
2022/09/02 08:46:10;;;;;;;2.75;0.70;;;;;;;19.90;49.74;102072.72;5018226;28;20310;-44
2022/09/02 08:48:41;;;;;;;1.75;0.50;;;;;;;19.83;50.55;102071.31;5024677;28;20172;-46
2022/09/02 08:51:15;;;;;;;0.50;0.50;;;;;;;20.02;50.34;102071.13;5021997;28;20194;-45
2022/09/02 08:54:06;;;;;;;1.08;0.70;;;;;;;20.46;50.40;102062.16;5021887;28;20287;-48
2022/09/02 08:56:32;;;;;;;0.60;0.60;;;;;;;20.19;49.98;102070.13;5016422;28;20827;-45
2022/09/02 08:58:59;;;;;;;1.23;0.82;;;;;;;20.24;49.76;102059.84;5024801;28;20187;-45
2022/09/02 09:01:38;;;;;;;0.50;0.50;;;;;;;20.22;50.37;102066.34;5025029;28;20204;-46
2022/09/02 09:04:03;;;;;;;1.45;0.60;;;;;;;19.81;50.24;102072.34;5020536;28;20262;-45
2022/09/02 09:06:57;;;;;;;0.93;0.63;;;;;;;20.20;50.20;102062.84;5020257;28;20209;-49
2022/09/02 09:09:48;;;;;;;0.93;0.77;;;;;;;20.46;50.68;102054.00;5028705;28;20696;-52
2022/09/02 09:12:21;;;;;;;0.63;0.55;;;;;;;20.30;50.18;102045.88;5016654;28;20219;-47
2022/09/02 09:15:02;;;;;;;1.20;0.60;;;;;;;20.44;50.07;102036.88;5027981;28;20270;-48
2022/09/02 09:17:58;;;;;;;1.27;0.55;;;;;;;20.28;49.22;102052.38;5018037;28;20727;-48
2022/09/02 09:20:27;;;;;;;2.25;1.08;;;;;;;21.10;48.92;102032.84;5024776;28;20211;-49
2022/09/02 09:22:58;;;;;;;0.95;0.50;;;;;;;20.50;48.58;102044.66;5022622;28;20188;-47
2022/09/02 09:25:28;;;;;;;0.52;0.52;;;;;;;20.70;48.14;102043.47;5019702;28;20218;-46
2022/09/02 09:28:00;;;;;;;0.55;0.40;;;;;;;20.44;46.45;102045.03;5020937;28;20188;-48
2022/09/02 09:30:28;;;;;;;2.13;0.50;;;;;;;20.51;47.28;102035.56;5021192;28;20176;-47
2022/09/02 09:33:02;;;;;;;0.95;0.43;;;;;;;20.37;46.73;102038.22;5013898;28;20191;-47
2022/09/02 09:35:52;;;;;;;0.77;0.50;;;;;;;20.43;47.02;102039.72;5015997;28;20584;-49
2022/09/02 09:38:37;;;;;;;1.45;0.50;;;;;;;20.60;46.79;102044.13;5018938;28;20592;-48
2022/09/02 09:41:23;;;;;;;1.20;0.70;;;;;;;20.69;46.05;102038.16;5021919;28;20231;-49
2022/09/02 09:43:48;;;;;;;1.90;0.70;;;;;;;20.67;45.72;102038.22;5021329;28;20338;-49
2022/09/02 09:46:24;;;;;;;0.50;0.50;;;;;;;20.77;45.78;102036.69;5020110;28;20311;-50
2022/09/02 09:48:50;;;;;;;1.40;0.60;;;;;;;20.69;45.45;102032.69;5020372;28;20200;-53
2022/09/02 09:51:16;;;;;;;1.85;0.50;;;;;;;20.62;45.88;102034.03;5018871;28;20746;-47
2022/09/02 09:53:42;;;;;;;2.28;0.50;;;;;;;20.54;46.26;102013.56;5019509;28;20257;-47
2022/09/02 09:56:14;;;;;;;1.48;0.52;;;;;;;21.05;46.23;102024.06;5017474;28;20275;-47
2022/09/02 09:58:39;;;;;;;1.60;0.40;;;;;;;21.40;45.43;102013.59;5019026;28;20204;-49
2022/09/02 10:01:17;;;;;;;0.30;0.30;;;;;;;21.43;44.48;102012.59;5015910;28;20230;-50
2022/09/02 10:03:56;;;;;;;1.75;0.50;;;;;;;20.86;44.40;102016.19;5018703;28;20182;-51
2022/09/02 10:06:28;;;;;;;1.17;0.50;;;;;;;20.82;44.00;102009.19;5015535;28;20705;-48
2022/09/02 10:08:59;;;;;;;0.50;0.50;;;;;;;20.64;44.00;102004.84;5018496;28;20172;-49
2022/09/02 10:11:30;;;;;;;0.30;0.30;;;;;;;20.64;44.36;102008.47;5021536;28;20330;-47
2022/09/02 10:13:59;;;;;;;0.73;0.40;;;;;;;21.22;44.82;101992.13;5024806;28;20185;-51
2022/09/02 10:16:44;;;;;;;1.65;0.40;;;;;;;20.63;43.97;102001.25;5021115;28;20928;-50
2022/09/02 10:19:25;;;;;;;0.57;0.40;;;;;;;20.66;44.13;102000.19;5004633;28;20188;-51
2022/09/02 10:22:03;;;;;;;0.40;0.40;;;;;;;20.80;43.71;101994.78;5016352;28;20215;-49
2022/09/02 10:24:43;;;;;;;1.15;0.40;;;;;;;20.87;44.03;101996.13;5023717;28;20237;-50
2022/09/02 10:27:18;;;;;;;0.30;0.30;;;;;;;21.04;43.82;101994.19;5020570;28;20635;-47
2022/09/02 10:29:57;;;;;;;2.00;0.50;;;;;;;21.09;44.35;101989.31;5026847;28;20187;-49
2022/09/02 10:32:35;;;;;;;0.40;0.40;;;;;;;21.14;43.41;101989.88;5018876;28;20172;-49
2022/09/02 10:35:10;;;;;;;0.30;0.30;;;;;;;20.88;42.61;101984.28;5024062;28;20197;-45
2022/09/02 10:38:09;;;;;;;0.30;0.30;;;;;;;20.98;42.24;101985.41;5019266;28;20526;-46
2022/09/02 10:40:50;;;;;;;1.02;0.35;;;;;;;21.52;42.94;101981.13;5016054;28;20200;-46
2022/09/02 10:43:40;;;;;;;0.90;0.60;;;;;;;21.32;45.10;101969.63;5012408;28;20172;-47
2022/09/02 10:46:09;;;;;;;1.75;0.57;;;;;;;21.45;43.93;101974.28;5026005;28;20236;-46
2022/09/02 10:49:02;;;;;;;1.13;0.60;;;;;;;21.52;44.79;101971.06;5018540;28;20180;-49
2022/09/02 10:51:27;;;;;;;1.70;0.50;;;;;;;21.60;44.50;101949.63;5017991;28;20428;-50
2022/09/02 10:53:59;;;;;;;0.85;0.50;;;;;;;21.62;44.57;101949.50;5021266;28;20214;-49
2022/09/02 10:56:32;;;;;;;1.60;1.05;;;;;;;21.34;44.02;101955.88;5023875;28;20197;-47
2022/09/02 10:59:19;;;;;;;0.40;0.40;;;;;;;21.39;44.23;101959.19;5018035;28;20187;-47
2022/09/02 11:01:56;;;;;;;0.35;0.35;;;;;;;21.10;44.23;101951.06;5027898;28;20195;-48
2022/09/02 11:04:40;;;;;;;0.50;0.45;;;;;;;21.19;44.09;101958.66;5024512;28;20184;-47
2022/09/02 11:07:09;;;;;;;1.33;0.50;;;;;;;21.02;44.80;101966.16;5020297;28;20745;-48
2022/09/02 11:09:40;;;;;;;0.60;0.32;;;;;;;21.08;45.49;101955.75;5017362;28;20192;-50
2022/09/02 11:12:10;;;;;;;0.80;0.50;;;;;;;21.34;45.43;101961.31;5017625;28;20210;-46
2022/09/02 11:14:42;;;;;;;0.63;0.47;;;;;;;21.68;44.92;101950.94;5015719;28;20261;-49
2022/09/02 11:17:20;;;;;;;2.78;0.40;;;;;;;21.17;45.07;101954.28;5014865;28;20579;-50
2022/09/02 11:20:06;;;;;;;1.08;0.60;;;;;;;21.40;44.38;101960.94;5020846;28;20224;-48
2022/09/02 11:22:56;;;;;;;1.05;0.60;;;;;;;21.41;43.45;101960.00;5017426;28;20191;-48
2022/09/02 11:25:31;;;;;;;0.35;0.30;;;;;;;21.12;42.81;101951.84;5017036;28;20233;-47
2022/09/02 11:28:27;;;;;;;0.73;0.50;;;;;;;20.89;43.83;101952.44;5014531;28;20622;-49
2022/09/02 11:31:23;;;;;;;0.50;0.50;;;;;;;21.40;44.00;101941.84;5016142;28;20623;-46
2022/09/02 11:34:01;;;;;;;2.25;0.50;;;;;;;21.30;43.78;101943.44;4998015;28;20200;-46
2022/09/02 11:36:28;;;;;;;0.40;0.40;;;;;;;21.31;42.55;101935.16;5012206;28;20706;-49
2022/09/02 11:39:06;;;;;;;2.13;0.50;;;;;;;21.63;42.24;101932.19;5018933;28;20263;-49
2022/09/02 11:42:05;;;;;;;0.45;0.45;;;;;;;21.09;41.16;101941.13;5016581;28;20191;-48
2022/09/02 11:44:59;;;;;;;0.75;0.30;;;;;;;20.87;41.09;101933.47;4992205;28;20223;-51